Time;durP1;ratioP1;P1;durP2;ratioP2;P2;SDS_P1;SDS_P2;PMS_P1;PMS_P2;Temp;Humidity;BMP_temperature;BMP_pressure;BME280_temperature;BME280_humidity;BME280_pressure;Samples;Min_cycle;Max_cycle;Signal;HPM_P1;HPM_P2
2022/03/13 00:02:01;;;;;;;18.20;9.25;;;3.70;52.70;;;;;;4964125;28;20038;-88
2022/03/13 00:04:27;;;;;;;15.85;8.63;;;3.70;52.60;;;;;;4957664;28;20640;-88
2022/03/13 00:06:52;;;;;;;17.10;9.02;;;3.70;52.70;;;;;;4959038;28;20059;-88
2022/03/13 00:09:21;;;;;;;19.77;9.23;;;3.70;52.80;;;;;;4960350;28;20432;-88
2022/03/13 00:11:47;;;;;;;18.08;9.27;;;3.80;53.00;;;;;;4981233;28;20030;-88
2022/03/13 00:14:13;;;;;;;18.73;9.38;;;3.70;53.00;;;;;;4985045;28;20397;-88
2022/03/13 00:16:39;;;;;;;19.10;9.68;;;3.80;53.00;;;;;;4955677;28;20038;-88
2022/03/13 00:19:07;;;;;;;16.60;9.55;;;3.80;53.20;;;;;;4960186;28;20023;-88
2022/03/13 00:21:35;;;;;;;17.83;8.43;;;3.90;53.20;;;;;;4963559;28;20042;-88
2022/03/13 00:24:01;;;;;;;20.02;8.63;;;3.90;53.20;;;;;;4984201;28;20031;-88
2022/03/13 00:26:26;;;;;;;16.88;8.55;;;3.90;53.20;;;;;;4976804;28;20030;-88
2022/03/13 00:28:52;;;;;;;16.30;8.05;;;3.90;53.00;;;;;;4977428;28;20065;-88
2022/03/13 00:31:18;;;;;;;16.33;7.38;;;3.80;53.00;;;;;;4980562;28;20109;-88
2022/03/13 00:33:43;;;;;;;13.95;7.22;;;3.90;53.00;;;;;;4955848;28;20027;-88
2022/03/13 00:36:09;;;;;;;15.45;7.63;;;3.90;52.90;;;;;;4959647;28;20031;-88
2022/03/13 00:38:35;;;;;;;16.60;7.80;;;3.80;52.80;;;;;;4957114;28;20026;-88
2022/03/13 00:41:00;;;;;;;15.73;7.53;;;3.80;52.80;;;;;;4969867;28;20086;-88
2022/03/13 00:43:29;;;;;;;14.13;7.63;;;3.70;52.70;;;;;;4967297;28;20031;-88
2022/03/13 00:45:55;;;;;;;16.25;7.35;;;3.70;52.70;;;;;;4975527;28;20023;-88
2022/03/13 00:48:23;;;;;;;13.18;7.13;;;3.70;52.70;;;;;;4975786;28;20034;-88
2022/03/13 00:50:49;;;;;;;13.02;6.97;;;3.60;52.70;;;;;;4974904;28;20114;-89
2022/03/13 00:53:15;;;;;;;10.82;6.65;;;3.60;53.20;;;;;;4953359;28;20463;-88
2022/03/13 00:55:40;;;;;;;12.50;7.25;;;3.60;52.70;;;;;;4974627;28;20085;-88
2022/03/13 00:58:06;;;;;;;11.55;6.93;;;3.60;52.60;;;;;;4973903;28;20439;-88
2022/03/13 01:00:31;;;;;;;9.98;6.10;;;3.60;52.40;;;;;;4955626;28;20069;-88
2022/03/13 01:02:57;;;;;;;12.10;6.07;;;3.50;52.30;;;;;;4975700;28;20085;-88
2022/03/13 01:05:25;;;;;;;11.43;6.07;;;3.50;52.30;;;;;;4959308;28;20030;-88
2022/03/13 01:07:52;;;;;;;11.63;6.28;;;3.50;52.30;;;;;;4958294;28;20503;-88
2022/03/13 01:10:18;;;;;;;10.85;6.10;;;3.50;52.20;;;;;;4974983;28;20018;-88
2022/03/13 01:12:45;;;;;;;9.43;5.22;;;3.50;52.20;;;;;;4977847;28;20475;-88
2022/03/13 01:15:11;;;;;;;9.57;5.57;;;3.50;52.20;;;;;;4967122;28;20030;-89
2022/03/13 01:17:36;;;;;;;11.38;6.03;;;3.60;52.20;;;;;;4974592;28;20022;-88
2022/03/13 01:20:05;;;;;;;11.45;7.05;;;3.60;52.20;;;;;;4978037;28;20054;-88
2022/03/13 01:22:30;;;;;;;13.35;6.40;;;3.60;52.20;;;;;;4996641;28;20029;-88
2022/03/13 01:24:56;;;;;;;12.50;6.60;;;3.60;52.10;;;;;;4972157;28;20403;-88
2022/03/13 01:27:22;;;;;;;14.35;6.43;;;3.60;52.10;;;;;;4974486;28;20432;-88
2022/03/13 01:29:48;;;;;;;12.45;7.05;;;3.60;52.00;;;;;;4956841;28;20023;-88
2022/03/13 01:32:14;;;;;;;13.50;7.22;;;3.60;52.00;;;;;;4956875;28;20034;-88
2022/03/13 01:34:46;;;;;;;10.77;6.97;;;3.50;52.00;;;;;;4956479;28;20049;-88
2022/03/13 01:37:19;;;;;;;14.63;7.10;;;3.40;52.10;;;;;;4975039;28;20027;-88
2022/03/13 01:39:45;;;;;;;12.02;6.65;;;3.30;52.00;;;;;;4957979;28;20054;-88
2022/03/13 01:42:10;;;;;;;12.93;7.15;;;3.20;52.00;;;;;;4968280;28;20062;-88
2022/03/13 01:44:36;;;;;;;12.70;6.50;;;3.20;52.20;;;;;;4978677;28;20368;-89
2022/03/13 01:47:04;;;;;;;13.57;7.68;;;3.10;52.20;;;;;;4974036;28;20019;-88
2022/03/13 01:49:30;;;;;;;11.73;6.53;;;3.10;52.30;;;;;;4957520;28;20034;-88
2022/03/13 01:51:57;;;;;;;12.60;6.75;;;3.00;52.30;;;;;;4956128;28;20031;-88
2022/03/13 01:54:23;;;;;;;11.88;6.63;;;3.00;52.30;;;;;;4974283;28;20049;-88
2022/03/13 01:56:49;;;;;;;13.60;7.40;;;3.00;52.30;;;;;;4956193;28;20091;-88
2022/03/13 01:59:15;;;;;;;13.00;6.70;;;3.00;52.40;;;;;;4957098;28;20070;-88
2022/03/13 02:01:43;;;;;;;12.70;6.68;;;2.90;52.30;;;;;;4956637;28;20054;-88
2022/03/13 02:04:11;;;;;;;13.77;6.10;;;2.90;52.30;;;;;;4954103;28;20031;-88
2022/03/13 02:06:37;;;;;;;15.65;6.35;;;2.90;52.30;;;;;;4957102;28;20031;-88
2022/03/13 02:09:06;;;;;;;14.80;5.78;;;2.80;52.30;;;;;;4955022;28;20403;-88
2022/03/13 02:11:36;;;;;;;10.98;5.78;;;2.80;52.30;;;;;;4961949;28;20034;-88
2022/03/13 02:14:03;;;;;;;11.38;6.03;;;2.70;52.30;;;;;;4966947;28;20105;-88
2022/03/13 02:16:29;;;;;;;10.30;5.65;;;2.80;52.30;;;;;;4957601;28;20027;-88
2022/03/13 02:18:56;;;;;;;10.00;5.65;;;2.80;52.30;;;;;;4975403;28;20231;-88
2022/03/13 02:21:28;;;;;;;11.57;5.70;;;2.80;52.30;;;;;;4956381;28;20041;-88
2022/03/13 02:23:58;;;;;;;10.43;5.80;;;2.80;52.30;;;;;;4949031;28;20063;-88
2022/03/13 02:26:24;;;;;;;9.45;5.38;;;2.80;52.20;;;;;;4961112;28;20117;-88
2022/03/13 02:28:52;;;;;;;10.65;5.63;;;2.80;52.20;;;;;;4957138;28;20053;-88
2022/03/13 02:31:28;;;;;;;10.68;5.25;;;2.80;52.20;;;;;;4953027;28;20035;-88
2022/03/13 02:33:56;;;;;;;8.20;5.32;;;2.80;52.20;;;;;;4957339;28;20035;-88
2022/03/13 02:36:23;;;;;;;15.40;5.70;;;2.80;52.10;;;;;;4974527;28;20102;-88
2022/03/13 02:38:49;;;;;;;9.10;5.65;;;2.70;52.10;;;;;;4957643;28;20027;-88
2022/03/13 02:41:14;;;;;;;11.90;5.60;;;2.70;52.10;;;;;;4964548;28;20034;-88
2022/03/13 02:43:40;;;;;;;9.52;6.15;;;2.60;52.10;;;;;;4990118;28;20057;-88
2022/03/13 02:46:19;;;;;;;10.38;5.78;;;2.50;52.20;;;;;;4995786;28;20043;-88
2022/03/13 02:48:45;;;;;;;10.43;5.88;;;2.40;52.20;;;;;;4980822;28;20115;-87
2022/03/13 02:51:10;;;;;;;10.48;5.85;;;2.40;52.30;;;;;;4979059;28;20047;-88
2022/03/13 02:53:38;;;;;;;14.35;6.28;;;2.40;52.50;;;;;;4980309;28;20011;-87
2022/03/13 02:56:04;;;;;;;8.88;5.65;;;2.40;52.60;;;;;;4978014;28;20054;-88
2022/03/13 02:58:29;;;;;;;13.63;5.97;;;2.30;52.60;;;;;;4979704;28;20045;-88
2022/03/13 03:00:56;;;;;;;11.15;6.30;;;2.30;52.80;;;;;;4995596;28;20026;-88
2022/03/13 03:03:23;;;;;;;9.60;6.05;;;2.30;52.90;;;;;;4995857;28;20023;-88
2022/03/13 03:05:50;;;;;;;11.30;6.03;;;2.30;52.90;;;;;;4969416;28;20348;-88
2022/03/13 03:08:16;;;;;;;10.85;6.03;;;2.30;53.00;;;;;;4957974;28;20467;-88
2022/03/13 03:10:42;;;;;;;11.00;6.13;;;2.30;53.20;;;;;;4959329;28;20034;-88
2022/03/13 03:13:08;;;;;;;11.98;6.40;;;2.30;53.30;;;;;;4972066;28;20113;-88
2022/03/13 03:15:34;;;;;;;12.77;6.32;;;2.30;53.40;;;;;;4956684;28;20065;-88
2022/03/13 03:18:01;;;;;;;13.23;8.23;;;2.30;53.50;;;;;;4959084;28;20391;-88
2022/03/13 03:20:27;;;;;;;12.88;7.32;;;2.30;53.60;;;;;;4958160;28;20026;-88
2022/03/13 03:22:54;;;;;;;11.45;6.80;;;2.40;53.60;;;;;;4957043;28;20110;-88
2022/03/13 03:25:23;;;;;;;10.73;6.35;;;2.40;53.40;;;;;;4956934;28;20121;-89
2022/03/13 03:27:52;;;;;;;10.85;6.25;;;2.30;53.30;;;;;;4974431;28;20031;-88
2022/03/13 03:30:19;;;;;;;12.57;6.20;;;2.20;53.40;;;;;;4969246;28;20030;-88
2022/03/13 03:32:45;;;;;;;10.20;5.53;;;2.10;53.40;;;;;;4972656;28;20451;-88
2022/03/13 03:35:11;;;;;;;12.25;6.25;;;2.00;53.30;;;;;;4956596;28;20030;-88
2022/03/13 03:37:36;;;;;;;8.77;5.63;;;1.90;53.30;;;;;;4956009;28;20046;-88
2022/03/13 03:40:05;;;;;;;11.80;6.20;;;1.90;53.40;;;;;;4957040;28;20027;-88
2022/03/13 03:42:30;;;;;;;10.93;6.72;;;1.80;53.60;;;;;;4987369;28;20034;-88
2022/03/13 03:44:56;;;;;;;10.45;5.70;;;1.80;53.70;;;;;;4956782;28;20029;-88
2022/03/13 03:47:21;;;;;;;9.38;5.82;;;1.70;53.60;;;;;;4955842;28;20027;-88
2022/03/13 03:49:47;;;;;;;10.93;6.60;;;1.70;53.70;;;;;;4957233;28;20035;-88
2022/03/13 03:52:13;;;;;;;11.23;6.03;;;1.70;53.90;;;;;;4972703;28;20045;-88
2022/03/13 03:54:38;;;;;;;13.02;6.25;;;1.70;54.00;;;;;;4957158;28;20095;-88
2022/03/13 03:57:04;;;;;;;10.57;5.63;;;1.70;54.00;;;;;;4956838;28;20126;-88
2022/03/13 03:59:30;;;;;;;13.52;6.70;;;1.70;54.00;;;;;;4954568;28;20031;-88
2022/03/13 04:01:56;;;;;;;11.48;6.75;;;1.70;54.00;;;;;;4955649;28;20037;-88
2022/03/13 04:04:22;;;;;;;12.10;6.70;;;1.70;54.00;;;;;;4957228;28;20030;-88
2022/03/13 04:06:47;;;;;;;12.40;6.80;;;1.60;54.00;;;;;;5019407;23;20046;-86
2022/03/13 04:09:22;;;;;;;12.00;5.72;;;1.60;54.00;;;;;;4985269;28;20102;-86
2022/03/13 04:11:52;;;;;;;10.52;6.15;;;1.50;54.00;;;;;;4977736;28;20046;-84
2022/03/13 04:14:21;;;;;;;11.95;6.60;;;1.50;53.90;;;;;;4983279;28;20046;-85
2022/03/13 04:16:47;;;;;;;11.07;7.00;;;1.40;53.90;;;;;;4978518;28;20061;-85
2022/03/13 04:19:22;;;;;;;9.85;6.20;;;1.30;54.10;;;;;;4995163;28;20019;-85
2022/03/13 04:21:48;;;;;;;11.25;6.60;;;1.30;54.30;;;;;;4954041;29;20019;-86
2022/03/13 04:24:29;;;;;;;9.90;6.32;;;1.30;54.40;;;;;;4959639;28;20070;-87
2022/03/13 04:26:57;;;;;;;10.90;6.17;;;1.30;54.60;;;;;;4958906;28;20054;-87
2022/03/13 04:29:23;;;;;;;10.18;5.95;;;1.40;54.40;;;;;;4957897;28;20532;-86
2022/03/13 04:31:50;;;;;;;10.27;6.10;;;1.30;54.30;;;;;;4975278;28;20118;-87
2022/03/13 04:34:25;;;;;;;10.93;5.70;;;1.40;54.40;;;;;;4977525;28;20022;-87
2022/03/13 04:36:50;;;;;;;10.80;6.45;;;1.30;54.70;;;;;;4961075;28;20030;-88
2022/03/13 04:39:23;;;;;;;11.82;6.13;;;1.30;54.20;;;;;;4961754;28;20023;-86
2022/03/13 04:41:49;;;;;;;10.77;6.00;;;1.10;54.40;;;;;;4967621;28;20034;-88
2022/03/13 04:44:28;;;;;;;12.55;5.70;;;1.10;54.30;;;;;;4994136;28;20022;-87
2022/03/13 04:46:54;;;;;;;9.63;5.72;;;1.10;54.40;;;;;;4960659;28;20031;-87
2022/03/13 04:49:25;;;;;;;9.63;5.43;;;1.00;54.30;;;;;;4978004;28;20026;-86
2022/03/13 04:51:51;;;;;;;10.90;5.65;;;1.00;54.40;;;;;;4968068;28;20098;-87
2022/03/13 04:54:27;;;;;;;13.07;5.80;;;1.00;54.20;;;;;;4977970;28;20458;-88
2022/03/13 04:56:53;;;;;;;10.40;5.25;;;0.90;54.30;;;;;;4957960;28;20512;-88
2022/03/13 04:59:24;;;;;;;9.65;5.60;;;0.90;54.20;;;;;;4962242;28;20151;-86
2022/03/13 05:01:52;;;;;;;10.20;5.53;;;0.90;54.30;;;;;;4961360;28;20113;-87
2022/03/13 05:04:44;;;;;;;9.40;5.65;;;0.80;54.20;;;;;;4961431;28;20027;-86
2022/03/13 05:07:49;;;;;;;9.23;5.90;;;0.80;54.30;;;;;;4969166;28;20065;-88
2022/03/13 05:10:24;;;;;;;9.60;5.60;;;0.80;54.20;;;;;;4883000;29;20191;-86
2022/03/13 05:12:50;;;;;;;9.38;5.65;;;0.90;54.40;;;;;;4890162;29;20082;-86
2022/03/13 05:15:26;;;;;;;13.43;5.88;;;0.90;54.30;;;;;;4942485;28;20410;-87
2022/03/13 05:17:51;;;;;;;10.13;5.97;;;0.80;54.40;;;;;;4960726;28;20501;-88
2022/03/13 05:20:37;;;;;;;11.70;5.78;;;0.80;54.40;;;;;;4979181;28;20062;-87
2022/03/13 05:23:04;;;;;;;9.13;5.50;;;0.80;54.50;;;;;;4973633;28;20038;-87
2022/03/13 05:25:32;;;;;;;11.25;5.47;;;0.80;54.40;;;;;;4968961;28;20022;-88
2022/03/13 05:27:59;;;;;;;8.68;5.53;;;0.80;54.40;;;;;;4961519;28;20043;-87
2022/03/13 05:30:26;;;;;;;10.95;5.85;;;0.90;54.50;;;;;;4977371;28;20022;-86
2022/03/13 05:32:51;;;;;;;13.90;6.38;;;0.90;54.70;;;;;;4960717;28;20026;-86
2022/03/13 05:35:27;;;;;;;10.57;4.57;;;1.00;54.70;;;;;;4954038;28;20090;-86
2022/03/13 05:37:53;;;;;;;13.18;5.90;;;1.00;54.70;;;;;;4971984;28;20025;-86
2022/03/13 05:40:27;;;;;;;11.48;6.82;;;1.00;54.60;;;;;;4980501;28;20093;-86
2022/03/13 05:42:59;;;;;;;14.70;7.90;;;1.00;54.70;;;;;;4995011;28;20091;-85
2022/03/13 05:45:27;;;;;;;12.37;7.30;;;0.90;54.70;;;;;;4980049;28;20433;-87
2022/03/13 05:47:54;;;;;;;10.65;6.03;;;0.90;54.90;;;;;;4976538;28;20046;-87
2022/03/13 05:50:29;;;;;;;11.73;6.10;;;0.90;55.00;;;;;;4977018;28;20030;-87
2022/03/13 05:52:56;;;;;;;12.98;6.30;;;0.80;55.00;;;;;;4958860;28;20038;-86
2022/03/13 05:55:27;;;;;;;12.25;6.60;;;0.90;55.10;;;;;;4976815;28;20030;-87
2022/03/13 05:58:00;;;;;;;13.65;7.30;;;0.90;55.10;;;;;;4959009;28;20384;-87
2022/03/13 06:00:28;;;;;;;16.40;8.65;;;0.80;55.10;;;;;;4958462;28;20023;-87
2022/03/13 06:02:54;;;;;;;13.88;8.30;;;0.80;55.20;;;;;;4959164;28;20026;-87
2022/03/13 06:05:35;;;;;;;17.75;10.00;;;0.80;55.80;;;;;;4959430;28;20026;-86
2022/03/13 06:08:02;;;;;;;20.75;11.07;;;0.80;55.70;;;;;;4959665;28;20521;-87
2022/03/13 06:10:33;;;;;;;25.98;11.00;;;0.80;55.70;;;;;;4963295;28;20472;-88
2022/03/13 06:13:02;;;;;;;25.08;11.65;;;0.90;56.10;;;;;;4978463;28;20138;-86
2022/03/13 06:15:37;;;;;;;19.90;10.70;;;1.00;56.20;;;;;;4980802;28;20034;-87
2022/03/13 06:18:03;;;;;;;22.73;11.73;;;1.00;56.30;;;;;;4958341;28;20029;-88
2022/03/13 06:20:32;;;;;;;23.25;12.25;;;1.10;56.30;;;;;;4958393;28;20414;-87
2022/03/13 06:22:59;;;;;;;25.35;11.75;;;1.10;56.40;;;;;;4959475;28;20481;-86
2022/03/13 06:25:44;;;;;;;26.95;11.98;;;1.20;56.50;;;;;;4977066;28;20556;-87
2022/03/13 06:28:11;;;;;;;21.15;11.88;;;1.30;56.90;;;;;;4959866;28;20075;-86
2022/03/13 06:30:46;;;;;;;22.17;12.00;;;1.40;56.80;;;;;;4958424;28;20035;-88
2022/03/13 06:33:12;;;;;;;24.42;11.45;;;1.70;57.00;;;;;;4959826;28;20725;-87
2022/03/13 06:35:41;;;;;;;21.13;11.75;;;1.90;56.50;;;;;;4959532;28;20081;-87
2022/03/13 06:38:15;;;;;;;26.60;11.95;;;2.20;56.50;;;;;;4976184;28;20023;-87
2022/03/13 06:40:50;;;;;;;22.90;12.23;;;2.40;56.40;;;;;;4977066;28;20027;-86
2022/03/13 06:43:20;;;;;;;17.92;10.48;;;2.60;56.20;;;;;;4968219;28;20023;-87
2022/03/13 06:45:46;;;;;;;18.20;9.82;;;2.80;56.10;;;;;;4959147;28;20484;-86
2022/03/13 07:01:10;;;;;;;12.52;8.00;;;4.40;55.70;;;;;;4961214;28;20051;-88
2022/03/13 07:03:36;;;;;;;15.73;7.97;;;4.70;55.80;;;;;;4959416;28;20106;-88
2022/03/13 07:06:04;;;;;;;17.67;7.78;;;4.90;54.90;;;;;;4938301;29;20110;-87
2022/03/13 07:08:31;;;;;;;11.35;7.07;;;5.10;54.70;;;;;;4943213;29;20023;-87
2022/03/13 07:10:58;;;;;;;11.18;7.22;;;5.30;54.80;;;;;;4975571;23;20039;-87
2022/03/13 07:13:24;;;;;;;12.73;7.20;;;5.60;54.60;;;;;;4956954;28;20094;-86
2022/03/13 07:15:51;;;;;;;11.75;6.65;;;5.80;54.40;;;;;;4981294;28;20026;-86
2022/03/13 07:18:17;;;;;;;15.73;7.35;;;6.00;54.30;;;;;;4976852;28;20101;-84
2022/03/13 07:20:43;;;;;;;9.43;6.28;;;6.30;53.80;;;;;;4956238;28;20023;-84
2022/03/13 07:23:08;;;;;;;10.20;6.53;;;6.70;53.20;;;;;;4954158;28;20053;-85
2022/03/13 07:25:34;;;;;;;14.45;7.50;;;7.10;52.70;;;;;;4954956;28;20105;-85
2022/03/13 07:27:59;;;;;;;10.90;6.35;;;7.30;52.20;;;;;;4957285;28;20022;-83
2022/03/13 07:30:25;;;;;;;11.68;7.28;;;7.20;51.60;;;;;;4958573;28;20042;-85
2022/03/13 07:32:50;;;;;;;10.75;6.57;;;7.10;51.40;;;;;;4956515;28;20098;-85
2022/03/13 07:35:16;;;;;;;10.75;5.97;;;7.30;51.40;;;;;;4966062;28;20379;-84
2022/03/13 07:37:42;;;;;;;10.75;5.95;;;8.10;50.90;;;;;;4970062;28;20030;-83
2022/03/13 07:40:09;;;;;;;10.88;6.00;;;8.60;50.00;;;;;;4957825;28;20027;-83
2022/03/13 07:42:34;;;;;;;13.13;6.72;;;9.00;49.60;;;;;;4955333;28;20188;-84
2022/03/13 07:45:00;;;;;;;11.55;6.47;;;9.10;49.60;;;;;;4970990;28;20046;-84
2022/03/13 07:47:26;;;;;;;11.25;6.50;;;9.10;49.70;;;;;;4959775;28;20031;-85
2022/03/13 07:49:52;;;;;;;7.38;5.25;;;9.20;49.70;;;;;;4956637;28;20037;-87
2022/03/13 07:52:18;;;;;;;7.90;5.13;;;9.80;49.10;;;;;;4951873;28;20034;-85
2022/03/13 07:54:43;;;;;;;9.40;5.78;;;10.40;48.00;;;;;;4973202;28;20520;-87
2022/03/13 07:57:09;;;;;;;19.67;9.15;;;11.10;47.10;;;;;;4976756;28;20022;-84
2022/03/13 07:59:34;;;;;;;10.15;5.85;;;11.80;46.00;;;;;;4957279;28;20395;-86
2022/03/13 08:02:01;;;;;;;11.80;5.97;;;12.50;45.60;;;;;;4987285;28;20498;-87
2022/03/13 08:04:28;;;;;;;9.00;5.75;;;13.30;44.60;;;;;;4974363;28;20435;-83
2022/03/13 08:06:53;;;;;;;11.30;6.55;;;14.00;43.80;;;;;;4959552;28;20095;-86
2022/03/13 08:09:19;;;;;;;10.07;6.28;;;14.60;42.80;;;;;;4975599;28;20054;-85
2022/03/13 08:11:44;;;;;;;12.30;6.50;;;15.10;42.20;;;;;;4982301;28;20027;-88
2022/03/13 08:14:12;;;;;;;8.18;6.07;;;15.50;41.90;;;;;;4959645;28;20026;-85
2022/03/13 08:16:38;;;;;;;12.50;6.47;;;15.60;42.10;;;;;;4959955;28;20030;-87
2022/03/13 08:19:05;;;;;;;13.85;6.00;;;15.30;42.00;;;;;;4975016;28;20027;-87
2022/03/13 08:21:32;;;;;;;9.45;5.70;;;14.70;42.50;;;;;;4980541;28;20041;-85
2022/03/13 08:23:58;;;;;;;17.63;6.85;;;14.10;43.10;;;;;;4959610;28;20031;-86
2022/03/13 08:26:23;;;;;;;11.82;6.35;;;13.60;43.30;;;;;;4953368;28;20045;-85
2022/03/13 08:28:49;;;;;;;8.85;5.35;;;13.50;43.90;;;;;;4979683;28;20027;-85
2022/03/13 08:31:15;;;;;;;8.70;6.05;;;13.90;44.40;;;;;;4964692;28;20031;-86
2022/03/13 08:33:43;;;;;;;9.20;5.53;;;14.60;43.30;;;;;;4976540;28;20027;-85
2022/03/13 08:36:08;;;;;;;7.05;5.00;;;15.00;42.70;;;;;;4960028;28;20030;-87
2022/03/13 08:38:34;;;;;;;7.75;5.00;;;15.40;42.30;;;;;;4951517;28;20130;-87
2022/03/13 08:41:00;;;;;;;8.48;5.38;;;15.70;42.50;;;;;;4962590;28;20103;-85
2022/03/13 08:43:26;;;;;;;9.25;4.80;;;15.90;41.80;;;;;;4980222;28;20058;-85
2022/03/13 08:45:52;;;;;;;8.25;5.50;;;16.10;41.80;;;;;;4980199;28;20078;-85
2022/03/13 08:48:17;;;;;;;7.00;4.90;;;16.20;41.50;;;;;;4963432;28;20122;-85
2022/03/13 08:50:43;;;;;;;9.07;5.40;;;16.30;41.40;;;;;;4962078;28;20058;-87
2022/03/13 08:53:09;;;;;;;7.97;5.43;;;16.40;41.00;;;;;;4958398;28;20074;-86
2022/03/13 08:55:34;;;;;;;9.68;4.88;;;16.30;41.10;;;;;;4962130;28;20034;-86
2022/03/13 08:58:00;;;;;;;8.02;5.13;;;16.30;41.20;;;;;;4958781;28;20031;-85
2022/03/13 09:00:27;;;;;;;6.40;4.93;;;16.40;41.30;;;;;;4966787;28;20023;-87
2022/03/13 09:02:53;;;;;;;8.65;5.20;;;16.40;41.30;;;;;;4979833;28;20031;-87
2022/03/13 09:05:22;;;;;;;7.93;5.13;;;16.40;41.20;;;;;;4969914;28;20054;-85
2022/03/13 09:07:47;;;;;;;8.95;5.63;;;16.30;41.20;;;;;;4978473;28;20364;-83
2022/03/13 09:10:13;;;;;;;10.00;4.82;;;16.20;40.80;;;;;;4978218;28;20019;-83
2022/03/13 09:12:39;;;;;;;10.65;5.57;;;16.00;40.70;;;;;;4992862;28;20054;-87
2022/03/13 09:15:07;;;;;;;9.00;5.38;;;15.90;41.10;;;;;;4960080;28;20030;-89
2022/03/13 09:17:33;;;;;;;8.35;4.95;;;15.90;41.30;;;;;;4968533;28;20026;-89
2022/03/13 09:19:58;;;;;;;7.38;4.88;;;15.90;41.70;;;;;;4980078;28;20038;-88
2022/03/13 09:22:30;;;;;;;8.38;4.72;;;15.90;41.60;;;;;;4993619;28;20049;-90
2022/03/13 09:24:59;;;;;;;7.82;5.28;;;15.90;41.80;;;;;;4965764;28;20030;-91
2022/03/13 09:27:27;;;;;;;9.27;5.43;;;15.90;41.90;;;;;;4961427;28;20399;-86
2022/03/13 09:29:54;;;;;;;7.28;5.00;;;15.90;41.80;;;;;;4977515;28;20101;-87
2022/03/13 09:32:23;;;;;;;6.80;4.70;;;15.80;42.00;;;;;;4978900;28;20031;-85
2022/03/13 09:34:49;;;;;;;8.07;5.30;;;15.80;41.90;;;;;;4956821;28;20640;-87
2022/03/13 09:37:14;;;;;;;11.88;5.55;;;15.70;41.90;;;;;;4958256;28;20045;-85
2022/03/13 09:39:40;;;;;;;7.63;5.05;;;15.70;42.20;;;;;;4957565;28;20472;-87
2022/03/13 09:42:06;;;;;;;9.40;5.03;;;15.70;42.00;;;;;;4953207;28;20439;-87
2022/03/13 09:44:32;;;;;;;9.50;5.28;;;15.70;42.10;;;;;;4954842;28;20031;-86
2022/03/13 09:46:58;;;;;;;8.45;5.03;;;15.80;42.10;;;;;;4957797;28;20026;-86
2022/03/13 09:49:24;;;;;;;8.05;5.38;;;15.90;42.10;;;;;;4972330;28;20053;-87
2022/03/13 09:51:50;;;;;;;8.15;5.25;;;16.00;42.10;;;;;;4974006;28;20042;-85
2022/03/13 09:54:16;;;;;;;9.93;6.25;;;16.10;42.00;;;;;;4976515;28;20047;-86
2022/03/13 09:56:41;;;;;;;12.18;6.05;;;16.20;42.10;;;;;;4964868;28;20049;-86
2022/03/13 09:59:07;;;;;;;8.88;5.70;;;16.30;42.00;;;;;;4961518;28;20030;-87
2022/03/13 10:01:33;;;;;;;7.95;5.88;;;16.30;41.80;;;;;;4965360;28;20070;-88
2022/03/13 10:03:59;;;;;;;10.68;5.70;;;16.40;41.80;;;;;;4961796;28;20102;-86
2022/03/13 10:06:25;;;;;;;11.13;5.82;;;16.60;42.00;;;;;;4961519;28;20057;-87
2022/03/13 10:08:51;;;;;;;12.23;5.82;;;16.60;41.60;;;;;;4958928;28;20019;-86
2022/03/13 10:11:33;;;;;;;11.43;5.35;;;16.70;41.50;;;;;;4956348;28;20034;-87
2022/03/13 10:14:10;;;;;;;12.55;6.38;;;16.70;41.30;;;;;;4968167;28;20033;-87
2022/03/13 10:16:39;;;;;;;8.75;6.25;;;16.70;41.40;;;;;;4957774;28;20034;-88
2022/03/13 10:19:18;;;;;;;9.60;6.18;;;16.70;41.60;;;;;;4956476;28;20041;-87
2022/03/13 10:22:03;;;;;;;10.95;6.53;;;16.90;41.40;;;;;;4947620;28;20384;-85
2022/03/13 10:24:57;;;;;;;8.88;6.18;;;16.90;41.30;;;;;;4948752;28;20030;-86
2022/03/13 10:27:22;;;;;;;10.85;6.72;;;17.00;41.40;;;;;;4970140;28;20094;-85
2022/03/13 10:29:48;;;;;;;10.98;6.47;;;17.00;41.40;;;;;;4953584;28;20069;-86
2022/03/13 10:32:15;;;;;;;11.73;6.53;;;17.10;41.40;;;;;;4974008;28;20034;-87
2022/03/13 10:34:41;;;;;;;9.10;6.32;;;17.10;41.20;;;;;;4959915;28;20054;-88
2022/03/13 10:37:08;;;;;;;11.48;6.68;;;17.00;41.20;;;;;;4944775;28;20118;-87
2022/03/13 10:39:35;;;;;;;11.10;6.65;;;17.10;41.30;;;;;;4944125;28;20057;-86
2022/03/13 10:42:02;;;;;;;16.08;7.03;;;17.20;41.20;;;;;;4965452;28;20069;-87
2022/03/13 10:44:36;;;;;;;11.65;7.03;;;17.30;41.10;;;;;;4953354;28;20039;-87
2022/03/13 10:47:05;;;;;;;11.43;6.70;;;17.30;41.00;;;;;;4951656;28;20027;-87
2022/03/13 10:49:32;;;;;;;11.32;7.28;;;17.30;40.90;;;;;;4958814;28;20049;-87
2022/03/13 10:51:59;;;;;;;13.45;7.47;;;17.20;40.90;;;;;;4973349;28;20388;-87
2022/03/13 10:54:37;;;;;;;11.93;7.15;;;17.20;40.90;;;;;;4965411;28;20075;-88
2022/03/13 10:57:12;;;;;;;11.75;7.10;;;17.20;41.00;;;;;;4947912;28;20514;-87
2022/03/13 10:59:40;;;;;;;11.48;7.63;;;17.40;40.90;;;;;;4946514;28;20031;-86
2022/03/13 11:02:16;;;;;;;13.13;8.35;;;17.40;41.00;;;;;;4968893;28;20399;-86
2022/03/13 11:04:55;;;;;;;15.45;8.15;;;17.40;41.00;;;;;;4951592;28;20027;-87
2022/03/13 11:07:22;;;;;;;13.60;8.20;;;17.40;40.80;;;;;;4968879;28;20022;-87
2022/03/13 11:09:48;;;;;;;14.73;8.80;;;17.40;41.00;;;;;;4955557;28;20034;-88
2022/03/13 11:12:20;;;;;;;17.00;9.02;;;17.50;41.10;;;;;;4951433;28;20565;-86
2022/03/13 11:14:49;;;;;;;14.15;8.90;;;17.60;41.00;;;;;;4955853;28;20050;-87
2022/03/13 11:17:19;;;;;;;18.92;9.23;;;17.70;41.00;;;;;;4947059;28;20054;-88
2022/03/13 11:19:49;;;;;;;13.00;8.63;;;17.80;40.90;;;;;;4971907;28;20089;-87
2022/03/13 11:22:22;;;;;;;13.88;8.93;;;17.90;40.80;;;;;;4964248;28;20480;-87
2022/03/13 11:24:54;;;;;;;13.77;9.25;;;17.90;40.70;;;;;;4956467;28;20114;-86
2022/03/13 11:27:21;;;;;;;18.73;9.90;;;18.00;40.40;;;;;;4956668;28;20108;-86
2022/03/13 11:29:52;;;;;;;20.02;10.27;;;18.10;40.70;;;;;;4981380;28;20040;-87
2022/03/13 11:32:39;;;;;;;14.07;8.98;;;18.20;40.40;;;;;;4994082;28;20038;-87
2022/03/13 11:35:14;;;;;;;15.55;9.13;;;18.30;40.30;;;;;;4985668;28;20057;-86
2022/03/13 11:37:41;;;;;;;14.93;9.68;;;18.40;40.20;;;;;;4972863;28;20026;-86
2022/03/13 11:40:08;;;;;;;17.85;9.93;;;18.30;40.10;;;;;;4956673;28;20475;-87
2022/03/13 11:42:47;;;;;;;16.00;10.45;;;18.20;40.40;;;;;;4956960;28;20042;-87
2022/03/13 11:45:30;;;;;;;18.65;10.00;;;18.30;40.10;;;;;;4956770;28;20018;-85
2022/03/13 11:48:04;;;;;;;;;;;18.30;40.50;;;;;;4973681;28;20403;-86
2022/03/13 11:50:47;;;;;;;17.60;10.13;;;18.40;41.30;;;;;;4958330;28;19982;-87
2022/03/13 11:53:16;;;;;;;;;;;18.40;40.60;;;;;;4957953;28;20514;-87
2022/03/13 11:56:00;;;;;;;19.98;10.40;;;18.50;41.30;;;;;;4972173;28;20062;-86
2022/03/13 11:58:40;;;;;;;16.25;10.30;;;18.50;40.60;;;;;;4954764;28;20026;-86
2022/03/13 12:01:07;;;;;;;19.63;10.90;;;18.60;40.70;;;;;;4981530;28;20058;-87
2022/03/13 12:03:33;;;;;;;17.33;10.15;;;18.80;41.00;;;;;;4979404;28;20035;-87
2022/03/13 12:05:59;;;;;;;17.65;11.13;;;18.90;40.90;;;;;;4955528;28;20088;-87
2022/03/13 12:09:04;;;;;;;16.13;10.05;;;19.10;40.70;;;;;;4955804;28;20034;-87
2022/03/13 12:11:40;;;;;;;17.13;10.25;;;19.10;40.60;;;;;;4955414;28;20141;-87
2022/03/13 12:14:07;;;;;;;17.00;10.93;;;19.30;40.70;;;;;;4956122;28;20110;-87
2022/03/13 12:16:37;;;;;;;16.85;9.85;;;19.40;40.40;;;;;;4954739;28;20031;-87
2022/03/13 12:19:03;;;;;;;16.88;10.20;;;19.40;40.10;;;;;;4973373;28;20030;-87
2022/03/13 12:21:39;;;;;;;18.90;11.32;;;19.40;40.60;;;;;;4974363;28;20061;-88
2022/03/13 12:24:14;;;;;;;18.75;10.50;;;19.50;39.90;;;;;;4960436;28;20029;-86
2022/03/13 12:26:40;;;;;;;17.42;10.90;;;19.40;40.50;;;;;;4972102;28;20344;-88
2022/03/13 12:29:08;;;;;;;18.08;11.18;;;19.40;40.60;;;;;;4973808;28;20427;-87
2022/03/13 12:31:48;;;;;;;16.92;11.05;;;19.50;40.60;;;;;;4972390;28;20070;-88
2022/03/13 12:34:23;;;;;;;16.65;10.52;;;19.60;40.80;;;;;;4991905;28;20526;-86
2022/03/13 12:36:49;;;;;;;17.60;11.32;;;19.80;40.40;;;;;;4992336;28;20022;-86
2022/03/13 12:39:16;;;;;;;18.42;11.95;;;19.90;40.30;;;;;;4972266;28;20053;-86
2022/03/13 12:41:54;;;;;;;17.73;10.90;;;20.00;40.00;;;;;;4954849;28;20399;-86
2022/03/13 12:44:21;;;;;;;18.13;11.55;;;20.10;40.20;;;;;;4955193;28;20027;-86
2022/03/13 12:46:51;;;;;;;19.80;11.88;;;20.10;39.50;;;;;;4952523;28;20369;-85
2022/03/13 12:49:19;;;;;;;19.10;12.27;;;20.00;39.70;;;;;;4959403;28;20495;-86
2022/03/13 12:51:50;;;;;;;22.40;11.65;;;20.00;39.60;;;;;;4978345;28;20042;-86
2022/03/13 12:54:21;;;;;;;20.38;12.40;;;20.00;40.30;;;;;;4994427;28;20014;-86
2022/03/13 12:56:53;;;;;;;21.05;12.25;;;20.10;39.50;;;;;;4991220;28;20417;-85
2022/03/13 12:59:30;;;;;;;21.23;13.00;;;20.20;39.50;;;;;;4980637;28;20033;-86
2022/03/13 13:02:10;;;;;;;20.50;12.38;;;20.10;38.90;;;;;;4987020;28;20048;-86
2022/03/13 13:04:50;;;;;;;22.30;12.93;;;19.90;38.80;;;;;;4979175;28;20046;-86